Time;durP1;ratioP1;P1;durP2;ratioP2;P2;SDS_P1;SDS_P2;PMS_P1;PMS_P2;Temp;Humidity;BMP_temperature;BMP_pressure;BME280_temperature;BME280_humidity;BME280_pressure;Samples;Min_cycle;Max_cycle;Signal;HPM_P1;HPM_P2
2023/12/05 00:01:59;;;;;;;0.00;0.00;;;9.40;75.20;;;;;;5042352;28;20207;-26
2023/12/05 00:04:26;;;;;;;0.00;0.00;;;9.40;75.20;;;;;;5049804;28;20748;-26
2023/12/05 00:06:59;;;;;;;0.00;0.00;;;9.40;75.20;;;;;;5046770;28;20247;-26
2023/12/05 00:09:29;;;;;;;0.00;0.00;;;9.40;75.20;;;;;;5055123;28;20232;-26
2023/12/05 00:11:56;;;;;;;0.00;0.00;;;9.40;75.30;;;;;;5050646;28;20200;-27
2023/12/05 00:14:28;;;;;;;0.00;0.00;;;9.40;75.30;;;;;;5069678;28;20211;-26
2023/12/05 00:16:56;;;;;;;0.00;0.00;;;9.40;75.30;;;;;;5060565;28;20212;-26
2023/12/05 00:19:25;;;;;;;0.00;0.00;;;9.40;75.20;;;;;;5073435;28;20685;-26
2023/12/05 00:21:55;;;;;;;0.00;0.00;;;9.50;75.30;;;;;;5045555;28;20204;-26
2023/12/05 00:24:23;;;;;;;0.00;0.00;;;9.50;75.30;;;;;;5046229;28;20210;-26
2023/12/05 00:26:52;;;;;;;0.00;0.00;;;9.50;75.40;;;;;;5045164;28;20710;-26
2023/12/05 00:29:22;;;;;;;0.00;0.00;;;9.50;75.40;;;;;;5045316;28;20208;-26
2023/12/05 00:31:52;;;;;;;0.00;0.00;;;9.50;75.40;;;;;;5048609;28;20227;-26
2023/12/05 00:34:19;;;;;;;0.00;0.00;;;9.50;75.40;;;;;;5045052;28;20299;-27
2023/12/05 00:36:49;;;;;;;0.00;0.00;;;9.50;75.30;;;;;;5046009;28;20231;-26
2023/12/05 00:39:16;;;;;;;0.00;0.00;;;9.50;75.30;;;;;;5046139;28;20203;-27
2023/12/05 00:41:46;;;;;;;0.00;0.00;;;9.50;75.30;;;;;;5046621;28;20262;-26
2023/12/05 00:44:16;;;;;;;0.00;0.00;;;9.50;75.30;;;;;;5063278;28;20200;-26
2023/12/05 00:46:44;;;;;;;0.00;0.00;;;9.50;75.40;;;;;;5063862;28;20298;-26
2023/12/05 00:49:13;;;;;;;0.00;0.00;;;9.50;75.40;;;;;;5065518;28;20203;-26
2023/12/05 00:51:40;;;;;;;0.00;0.00;;;9.60;75.40;;;;;;5053220;28;20200;-26
2023/12/05 00:54:10;;;;;;;0.00;0.00;;;9.60;75.40;;;;;;5045677;28;20208;-27
2023/12/05 00:56:39;;;;;;;0.00;0.00;;;9.60;75.40;;;;;;5067325;28;20362;-26
2023/12/05 00:59:07;;;;;;;0.00;0.00;;;9.60;75.40;;;;;;5045020;28;20216;-26
2023/12/05 01:01:36;;;;;;;0.00;0.00;;;9.60;75.40;;;;;;5047074;28;20263;-27
2023/12/05 01:04:06;;;;;;;0.00;0.00;;;9.60;75.40;;;;;;5059158;28;20265;-26
2023/12/05 01:06:36;;;;;;;0.00;0.00;;;9.60;75.40;;;;;;5068099;28;20239;-26
2023/12/05 01:09:10;;;;;;;0.00;0.00;;;9.60;75.50;;;;;;5068649;28;20709;-26
2023/12/05 01:11:42;;;;;;;0.00;0.00;;;9.60;75.50;;;;;;5057269;28;20261;-27
2023/12/05 01:14:10;;;;;;;0.00;0.00;;;9.60;75.50;;;;;;5060911;28;20212;-27
2023/12/05 01:16:42;;;;;;;0.00;0.00;;;9.60;75.50;;;;;;5066553;28;20215;-26
2023/12/05 01:19:12;;;;;;;0.00;0.00;;;9.60;75.50;;;;;;5065706;28;20195;-26
2023/12/05 01:21:39;;;;;;;0.00;0.00;;;9.60;75.50;;;;;;5046079;28;20377;-26
2023/12/05 01:24:09;;;;;;;0.00;0.00;;;9.60;75.60;;;;;;5043756;28;20216;-26
2023/12/05 01:26:38;;;;;;;0.00;0.00;;;9.60;75.50;;;;;;5031638;28;20191;-26
2023/12/05 01:29:10;;;;;;;0.00;0.00;;;9.60;75.50;;;;;;5053475;28;20223;-26
2023/12/05 01:31:37;;;;;;;0.00;0.00;;;9.60;75.50;;;;;;5045719;28;20207;-26
2023/12/05 01:34:05;;;;;;;0.00;0.00;;;9.60;75.50;;;;;;5062518;28;20498;-26
2023/12/05 01:36:39;;;;;;;0.00;0.00;;;9.60;75.50;;;;;;5063429;28;20200;-26
2023/12/05 01:39:12;;;;;;;0.00;0.00;;;9.60;75.50;;;;;;5063558;28;20206;-26
2023/12/05 01:41:42;;;;;;;0.00;0.00;;;9.60;75.60;;;;;;5057658;28;20212;-26
2023/12/05 01:44:09;;;;;;;0.00;0.00;;;9.60;75.60;;;;;;5043942;28;20228;-26
2023/12/05 01:46:37;;;;;;;0.00;0.00;;;9.60;75.60;;;;;;5056517;28;20206;-26
2023/12/05 01:49:06;;;;;;;0.00;0.00;;;9.60;75.60;;;;;;5063246;28;20211;-26
2023/12/05 01:51:47;;;;;;;0.00;0.00;;;9.60;75.60;;;;;;5055928;28;20203;-26
2023/12/05 01:54:15;;;;;;;0.00;0.00;;;9.60;75.60;;;;;;5076435;28;20197;-26
2023/12/05 01:56:44;;;;;;;0.00;0.00;;;9.60;75.60;;;;;;5069152;28;20342;-26
2023/12/05 01:59:14;;;;;;;0.00;0.00;;;9.60;75.70;;;;;;5050248;28;20207;-26
2023/12/05 02:01:41;;;;;;;0.00;0.00;;;9.60;75.60;;;;;;5057348;28;20193;-26
2023/12/05 02:04:09;;;;;;;0.00;0.00;;;9.60;75.60;;;;;;5050267;28;20977;-26
2023/12/05 02:06:40;;;;;;;0.00;0.00;;;9.60;75.60;;;;;;5054431;28;20323;-26
2023/12/05 02:09:14;;;;;;;0.00;0.00;;;9.60;75.60;;;;;;5059362;28;20211;-26
2023/12/05 02:11:46;;;;;;;0.00;0.00;;;9.60;75.60;;;;;;5062051;28;20192;-26
2023/12/05 02:14:13;;;;;;;0.00;0.00;;;9.60;75.60;;;;;;5062477;28;20211;-26
2023/12/05 02:16:53;;;;;;;0.00;0.00;;;9.60;75.70;;;;;;5049697;28;20891;-25
2023/12/05 02:19:20;;;;;;;0.00;0.00;;;9.60;75.70;;;;;;5064677;28;20674;-25
2023/12/05 02:21:53;;;;;;;0.00;0.00;;;9.60;75.60;;;;;;5062071;28;20592;-25
2023/12/05 02:24:38;;;;;;;0.00;0.00;;;9.60;75.70;;;;;;5055175;28;20310;-26
2023/12/05 02:27:15;;;;;;;0.00;0.00;;;9.60;75.70;;;;;;5053361;28;20377;-25
2023/12/05 02:29:50;;;;;;;0.00;0.00;;;9.60;75.70;;;;;;5059924;28;20219;-25
2023/12/05 02:32:20;;;;;;;0.00;0.00;;;9.60;75.70;;;;;;5046272;28;20322;-25
2023/12/05 02:34:50;;;;;;;0.00;0.00;;;9.60;75.80;;;;;;5052862;28;20837;-25
2023/12/05 02:37:33;;;;;;;0.00;0.00;;;9.60;75.80;;;;;;5044909;28;20601;-25
2023/12/05 02:40:26;;;;;;;0.00;0.00;;;9.60;75.80;;;;;;5064364;28;20717;-25
2023/12/05 02:42:56;;;;;;;0.00;0.00;;;9.60;75.80;;;;;;5045014;28;20746;-25
2023/12/05 02:45:30;;;;;;;0.00;0.00;;;9.60;75.80;;;;;;5076940;28;20991;-25
2023/12/05 02:48:00;;;;;;;0.00;0.00;;;9.60;75.80;;;;;;5076346;28;20228;-25
2023/12/05 02:50:30;;;;;;;0.00;0.00;;;9.60;75.80;;;;;;5076822;28;20212;-25
2023/12/05 02:52:57;;;;;;;0.00;0.00;;;9.70;75.90;;;;;;5049156;28;20201;-25
2023/12/05 02:55:24;;;;;;;0.00;0.00;;;9.70;75.90;;;;;;5045912;28;20205;-25
2023/12/05 02:57:53;;;;;;;0.00;0.00;;;9.70;75.90;;;;;;5048807;28;20238;-25
2023/12/05 03:00:23;;;;;;;0.00;0.00;;;9.70;75.90;;;;;;5062883;28;20219;-25
2023/12/05 03:02:50;;;;;;;0.00;0.00;;;9.70;76.00;;;;;;5053442;28;20619;-25
2023/12/05 03:05:20;;;;;;;0.00;0.00;;;9.70;75.90;;;;;;5049323;28;20310;-26
2023/12/05 03:07:54;;;;;;;0.00;0.00;;;9.70;75.90;;;;;;5063903;28;20203;-25
2023/12/05 03:10:22;;;;;;;0.00;0.00;;;9.70;75.90;;;;;;5065962;28;20200;-25
2023/12/05 03:12:51;;;;;;;0.00;0.00;;;9.70;75.90;;;;;;5063185;28;20207;-25
2023/12/05 03:15:18;;;;;;;0.00;0.00;;;9.70;75.90;;;;;;5058511;28;20714;-25
2023/12/05 03:17:48;;;;;;;0.00;0.00;;;9.70;76.00;;;;;;5068429;28;20220;-25
2023/12/05 03:20:18;;;;;;;0.00;0.00;;;9.70;76.00;;;;;;5067177;28;20282;-25
2023/12/05 03:22:48;;;;;;;0.00;0.00;;;9.70;76.00;;;;;;5067358;28;20221;-25
2023/12/05 03:25:17;;;;;;;0.00;0.00;;;9.70;76.00;;;;;;5059039;28;20192;-25
2023/12/05 03:27:46;;;;;;;0.00;0.00;;;9.70;76.00;;;;;;5061394;28;20207;-25
2023/12/05 03:30:16;;;;;;;0.00;0.00;;;9.70;76.00;;;;;;5064841;28;20196;-25
2023/12/05 03:32:46;;;;;;;0.00;0.00;;;9.70;76.00;;;;;;5047184;28;20566;-25
2023/12/05 03:35:16;;;;;;;0.00;0.00;;;9.70;76.00;;;;;;5051083;28;20759;-25
2023/12/05 03:37:43;;;;;;;0.00;0.00;;;9.70;76.00;;;;;;5065840;28;20444;-25
2023/12/05 03:40:13;;;;;;;0.00;0.00;;;9.80;76.10;;;;;;5067092;28;20215;-25
2023/12/05 03:42:40;;;;;;;0.00;0.00;;;9.70;76.00;;;;;;5048874;28;20218;-25
2023/12/05 03:45:08;;;;;;;0.00;0.00;;;9.70;76.10;;;;;;5048763;28;20196;-25
2023/12/05 03:47:35;;;;;;;0.00;0.00;;;9.80;76.20;;;;;;5068955;28;20211;-25
2023/12/05 03:50:02;;;;;;;0.00;0.00;;;9.80;76.10;;;;;;5069641;28;20192;-25
2023/12/05 03:52:30;;;;;;;0.00;0.00;;;9.80;76.10;;;;;;5068250;28;20222;-25
2023/12/05 03:54:57;;;;;;;0.00;0.00;;;9.80;76.10;;;;;;5051820;28;20208;-25
2023/12/05 03:57:26;;;;;;;0.00;0.00;;;9.80;76.20;;;;;;5050558;28;20311;-25
2023/12/05 03:59:56;;;;;;;0.00;0.00;;;9.80;76.20;;;;;;5063543;28;20289;-25
2023/12/05 04:02:23;;;;;;;0.00;0.00;;;9.80;76.20;;;;;;5063738;28;20331;-25
2023/12/05 04:04:53;;;;;;;0.00;0.00;;;9.80;76.20;;;;;;5048273;28;20981;-26
2023/12/05 04:07:22;;;;;;;0.00;0.00;;;9.80;76.20;;;;;;5059777;28;20272;-25
2023/12/05 04:09:49;;;;;;;0.00;0.00;;;9.80;76.20;;;;;;5067461;28;20583;-26
2023/12/05 04:12:19;;;;;;;0.00;0.00;;;9.80;76.20;;;;;;5059030;28;20303;-25
2023/12/05 04:14:46;;;;;;;0.00;0.00;;;9.80;76.30;;;;;;5048293;28;20205;-25
2023/12/05 04:17:18;;;;;;;0.00;0.00;;;9.80;76.30;;;;;;5060092;28;20203;-25
2023/12/05 04:19:48;;;;;;;0.00;0.00;;;9.80;76.30;;;;;;5066496;28;20583;-25
2023/12/05 04:22:17;;;;;;;0.00;0.00;;;9.80;76.30;;;;;;5064806;28;20200;-26
2023/12/05 04:24:44;;;;;;;0.00;0.00;;;9.80;76.30;;;;;;5065300;28;20215;-25
2023/12/05 04:27:14;;;;;;;0.00;0.00;;;9.80;76.40;;;;;;5064030;28;20195;-26
2023/12/05 04:29:45;;;;;;;0.00;0.00;;;9.80;76.30;;;;;;5065965;28;20215;-26
2023/12/05 04:32:12;;;;;;;0.00;0.00;;;9.80;76.30;;;;;;5048898;28;20188;-25
2023/12/05 04:34:44;;;;;;;0.00;0.00;;;9.80;76.30;;;;;;5046905;28;21015;-25
2023/12/05 04:37:14;;;;;;;0.00;0.00;;;9.80;76.30;;;;;;5048057;28;20511;-26
2023/12/05 04:39:48;;;;;;;0.00;0.00;;;9.80;76.30;;;;;;5065335;28;20212;-25
2023/12/05 04:42:15;;;;;;;0.00;0.00;;;9.80;76.30;;;;;;5048285;28;20202;-26
2023/12/05 04:44:45;;;;;;;0.00;0.00;;;9.80;76.30;;;;;;5046488;28;20211;-26
2023/12/05 04:47:17;;;;;;;0.00;0.00;;;9.80;76.40;;;;;;5063913;28;20215;-26
2023/12/05 04:49:46;;;;;;;0.00;0.00;;;9.80;76.30;;;;;;5063920;28;20196;-26
2023/12/05 04:52:16;;;;;;;0.00;0.00;;;9.80;76.40;;;;;;5065103;28;20188;-25
2023/12/05 04:54:43;;;;;;;0.00;0.00;;;9.80;76.40;;;;;;5065787;28;20208;-26
2023/12/05 04:57:10;;;;;;;0.00;0.00;;;9.80;76.40;;;;;;5061059;28;20648;-25
2023/12/05 04:59:37;;;;;;;0.00;0.00;;;9.80;76.40;;;;;;5053232;28;20199;-26
2023/12/05 05:02:07;;;;;;;0.00;0.00;;;9.80;76.40;;;;;;5066895;28;20950;-26
2023/12/05 05:04:34;;;;;;;0.00;0.00;;;9.80;76.30;;;;;;5067660;28;20265;-26
2023/12/05 05:07:03;;;;;;;0.00;0.00;;;9.80;76.40;;;;;;5066069;28;20241;-26
2023/12/05 05:09:31;;;;;;;0.00;0.00;;;9.80;76.30;;;;;;5066724;28;20807;-26
2023/12/05 05:12:00;;;;;;;0.00;0.00;;;9.70;76.30;;;;;;5055315;28;20196;-26
2023/12/05 05:14:27;;;;;;;0.00;0.00;;;9.70;76.20;;;;;;5068669;28;20698;-25
2023/12/05 05:16:55;;;;;;;0.00;0.00;;;9.70;76.20;;;;;;5052362;28;20218;-25
2023/12/05 05:19:23;;;;;;;0.00;0.00;;;9.70;76.20;;;;;;5053435;28;20231;-25
2023/12/05 05:21:55;;;;;;;0.00;0.00;;;9.70;77.00;;;;;;5048009;28;20250;-26
2023/12/05 05:24:27;;;;;;;0.00;0.00;;;9.60;76.20;;;;;;5047283;28;20196;-25
2023/12/05 05:26:57;;;;;;;0.00;0.00;;;9.60;76.30;;;;;;5044428;28;20706;-25
2023/12/05 05:29:24;;;;;;;0.00;0.00;;;9.60;76.30;;;;;;5046985;28;20216;-25
2023/12/05 05:31:56;;;;;;;0.00;0.00;;;9.60;76.30;;;;;;5057191;28;20261;-25
2023/12/05 05:34:29;;;;;;;0.00;0.00;;;9.50;76.20;;;;;;5064565;28;20318;-25
2023/12/05 05:36:56;;;;;;;0.00;0.00;;;9.50;77.00;;;;;;5066439;28;20207;-27
2023/12/05 05:39:23;;;;;;;0.00;0.00;;;9.50;76.30;;;;;;5064094;28;20222;-25
2023/12/05 05:41:52;;;;;;;0.00;0.00;;;9.50;76.40;;;;;;5037360;28;20303;-25
2023/12/05 05:44:22;;;;;;;0.00;0.00;;;9.50;76.40;;;;;;5056769;28;20348;-25
2023/12/05 05:46:49;;;;;;;0.00;0.00;;;9.50;76.40;;;;;;5056833;28;20195;-25
2023/12/05 05:49:17;;;;;;;0.00;0.00;;;9.50;76.40;;;;;;5052160;28;20299;-25
2023/12/05 05:51:46;;;;;;;0.00;0.00;;;9.40;76.30;;;;;;5047442;28;20197;-25
2023/12/05 05:54:13;;;;;;;0.00;0.00;;;9.40;76.40;;;;;;5054667;28;20218;-26
2023/12/05 05:56:43;;;;;;;0.00;0.00;;;9.40;76.40;;;;;;5044133;28;20215;-25
2023/12/05 05:59:10;;;;;;;0.00;0.00;;;9.40;76.50;;;;;;5053218;28;20753;-25
2023/12/05 06:01:48;;;;;;;0.00;0.00;;;9.40;76.40;;;;;;5072743;28;20192;-25
2023/12/05 06:04:17;;;;;;;0.00;0.00;;;9.30;76.40;;;;;;5061728;28;20204;-25
2023/12/05 06:06:47;;;;;;;0.00;0.00;;;9.30;76.50;;;;;;5050359;28;20860;-25
2023/12/05 06:09:17;;;;;;;0.00;0.00;;;9.30;76.50;;;;;;5051507;28;20285;-25
2023/12/05 06:11:44;;;;;;;0.00;0.00;;;9.30;76.60;;;;;;5053732;28;20625;-25
2023/12/05 06:14:14;;;;;;;0.00;0.00;;;9.30;76.60;;;;;;5069681;28;20283;-25
2023/12/05 06:16:41;;;;;;;0.00;0.00;;;9.30;76.50;;;;;;5053657;28;20697;-25
2023/12/05 06:19:13;;;;;;;0.00;0.00;;;9.30;76.60;;;;;;5052300;28;20227;-25
2023/12/05 06:21:45;;;;;;;0.00;0.00;;;9.30;76.50;;;;;;5044333;28;20596;-25
2023/12/05 06:24:19;;;;;;;0.00;0.00;;;9.20;76.30;;;;;;5060670;28;20689;-25
2023/12/05 06:26:52;;;;;;;0.00;0.00;;;9.20;76.40;;;;;;5048738;28;20196;-25
2023/12/05 06:29:19;;;;;;;0.00;0.00;;;9.10;76.30;;;;;;5049150;28;20584;-25
2023/12/05 06:31:48;;;;;;;0.00;0.00;;;9.10;76.20;;;;;;5046446;28;20684;-25
2023/12/05 06:34:18;;;;;;;0.00;0.00;;;9.00;76.20;;;;;;5056695;28;20212;-25
2023/12/05 06:36:45;;;;;;;0.00;0.00;;;9.00;76.30;;;;;;5062709;28;20282;-25
2023/12/05 06:39:17;;;;;;;0.00;0.00;;;9.00;76.30;;;;;;5056331;28;20223;-25
2023/12/05 06:41:44;;;;;;;0.00;0.00;;;8.90;76.40;;;;;;5058326;28;20628;-25
2023/12/05 06:44:16;;;;;;;0.00;0.00;;;8.90;76.40;;;;;;5064888;28;20286;-25
2023/12/05 06:46:43;;;;;;;0.00;0.00;;;8.80;76.30;;;;;;5055568;28;20205;-25
2023/12/05 06:49:11;;;;;;;0.00;0.00;;;8.80;76.50;;;;;;5061711;28;20561;-25
2023/12/05 06:51:40;;;;;;;0.00;0.00;;;8.80;76.50;;;;;;5070899;28;20195;-25
2023/12/05 06:54:07;;;;;;;0.00;0.00;;;8.80;76.50;;;;;;5071237;28;20199;-25
2023/12/05 06:56:36;;;;;;;0.00;0.00;;;8.80;76.40;;;;;;5039205;28;20203;-25
2023/12/05 06:59:06;;;;;;;0.00;0.00;;;8.80;76.40;;;;;;5051790;28;20212;-25
2023/12/05 07:01:33;;;;;;;0.00;0.00;;;8.70;76.50;;;;;;5048374;28;20703;-25
2023/12/05 07:04:01;;;;;;;0.00;0.00;;;8.70;76.50;;;;;;5075702;28;20240;-25
2023/12/05 07:06:29;;;;;;;0.00;0.00;;;8.70;76.60;;;;;;5047622;28;20232;-25
2023/12/05 07:08:56;;;;;;;0.00;0.00;;;8.70;76.60;;;;;;5051151;28;20208;-25
2023/12/05 07:11:29;;;;;;;0.00;0.00;;;8.70;76.50;;;;;;5055970;28;20211;-25
2023/12/05 07:13:57;;;;;;;0.00;0.00;;;8.70;76.40;;;;;;5067388;28;20709;-25
2023/12/05 07:16:26;;;;;;;0.00;0.00;;;8.70;76.40;;;;;;5057743;28;20204;-25
2023/12/05 07:18:55;;;;;;;0.00;0.00;;;8.60;76.40;;;;;;5049042;28;20259;-25
2023/12/05 07:21:22;;;;;;;0.00;0.00;;;8.60;76.50;;;;;;5062626;28;20295;-25
2023/12/05 07:23:52;;;;;;;0.00;0.00;;;8.60;76.50;;;;;;5054158;28;20219;-25
2023/12/05 07:26:27;;;;;;;0.00;0.00;;;8.60;76.50;;;;;;5068499;28;20885;-25
2023/12/05 07:28:57;;;;;;;0.00;0.00;;;8.50;76.40;;;;;;5083105;28;20199;-25
2023/12/05 07:31:26;;;;;;;0.00;0.00;;;8.50;76.40;;;;;;5065988;28;20211;-25
2023/12/05 07:33:57;;;;;;;0.00;0.00;;;8.50;76.40;;;;;;5059118;28;20706;-26
2023/12/05 07:36:27;;;;;;;0.00;0.00;;;8.40;76.30;;;;;;5068316;28;20234;-25
2023/12/05 07:38:54;;;;;;;0.00;0.00;;;8.40;76.30;;;;;;5068219;28;20300;-25
2023/12/05 07:41:31;;;;;;;0.00;0.00;;;8.40;76.30;;;;;;5050695;28;20230;-25
2023/12/05 07:44:00;;;;;;;0.00;0.00;;;8.30;76.50;;;;;;5063131;28;20700;-25
2023/12/05 07:46:35;;;;;;;0.00;0.00;;;8.30;76.50;;;;;;5057269;28;20900;-26
2023/12/05 07:49:02;;;;;;;0.00;0.00;;;8.30;76.50;;;;;;5049363;28;20250;-24
2023/12/05 07:51:32;;;;;;;0.00;0.00;;;8.30;76.50;;;;;;5061778;28;20203;-25
2023/12/05 07:53:59;;;;;;;0.00;0.00;;;8.20;76.60;;;;;;5067906;28;20214;-25
2023/12/05 07:56:29;;;;;;;0.00;0.00;;;8.20;76.70;;;;;;5054438;28;20203;-25
2023/12/05 07:59:01;;;;;;;0.00;0.00;;;8.30;76.80;;;;;;5055100;28;20758;-25
2023/12/05 08:01:28;;;;;;;0.00;0.00;;;8.30;76.80;;;;;;5055804;28;20709;-25
2023/12/05 08:03:57;;;;;;;0.00;0.00;;;8.30;76.80;;;;;;5059477;28;20204;-25
2023/12/05 08:06:25;;;;;;;0.00;0.00;;;8.30;76.80;;;;;;5068080;28;20259;-25
2023/12/05 08:08:52;;;;;;;0.00;0.00;;;8.30;76.70;;;;;;5064398;28;20246;-25
2023/12/05 08:11:21;;;;;;;0.00;0.00;;;8.30;76.70;;;;;;5056302;28;20235;-25
2023/12/05 08:13:49;;;;;;;0.00;0.00;;;8.30;76.70;;;;;;5055308;28;20207;-25
2023/12/05 08:16:19;;;;;;;0.00;0.00;;;8.20;76.70;;;;;;5058647;28;20210;-25
2023/12/05 08:18:46;;;;;;;0.00;0.00;;;8.30;76.80;;;;;;5062206;28;20230;-24
2023/12/05 08:21:13;;;;;;;0.00;0.00;;;8.20;76.80;;;;;;5056882;28;20231;-25
2023/12/05 08:23:41;;;;;;;0.00;0.00;;;8.30;76.80;;;;;;5052991;28;20567;-25
2023/12/05 08:26:11;;;;;;;0.00;0.00;;;8.30;76.80;;;;;;5073954;28;20323;-25
2023/12/05 08:28:38;;;;;;;0.00;0.00;;;8.30;76.90;;;;;;5077805;28;20211;-25
2023/12/05 08:31:11;;;;;;;0.00;0.00;;;8.30;76.80;;;;;;5071869;28;20207;-25
2023/12/05 08:33:42;;;;;;;0.00;0.00;;;8.30;76.90;;;;;;5063653;28;20202;-25
2023/12/05 08:36:10;;;;;;;0.00;0.00;;;8.30;77.00;;;;;;5057722;28;20604;-25
2023/12/05 08:38:37;;;;;;;0.00;0.00;;;8.30;77.00;;;;;;5063217;28;20224;-25
2023/12/05 08:41:17;;;;;;;0.00;0.00;;;8.30;76.90;;;;;;5055819;28;20200;-25
2023/12/05 08:43:45;;;;;;;0.00;0.00;;;8.30;76.90;;;;;;5048434;28;20200;-25
2023/12/05 08:46:13;;;;;;;0.00;0.00;;;8.30;76.80;;;;;;5065956;28;20359;-25
2023/12/05 08:48:40;;;;;;;0.00;0.00;;;8.30;76.70;;;;;;5058215;28;20669;-26
2023/12/05 08:51:10;;;;;;;0.00;0.00;;;8.20;76.60;;;;;;5042719;28;20216;-25
2023/12/05 08:53:42;;;;;;;0.00;0.00;;;8.20;76.60;;;;;;5050007;28;20236;-25
2023/12/05 08:56:09;;;;;;;0.00;0.00;;;8.20;76.60;;;;;;5048734;28;20212;-25
2023/12/05 08:58:39;;;;;;;0.00;0.00;;;8.10;76.60;;;;;;5049860;28;20224;-25
2023/12/05 09:01:10;;;;;;;0.00;0.00;;;8.10;76.70;;;;;;5058647;28;20202;-25
2023/12/05 09:03:41;;;;;;;0.00;0.00;;;8.10;76.90;;;;;;5061651;28;20713;-25
2023/12/05 09:06:14;;;;;;;0.00;0.00;;;8.10;76.80;;;;;;5052702;28;20279;-25
2023/12/05 09:08:41;;;;;;;0.00;0.00;;;8.10;76.80;;;;;;5050081;28;20204;-25
2023/12/05 09:11:09;;;;;;;0.00;0.00;;;8.10;76.80;;;;;;5047360;28;20270;-25
2023/12/05 09:13:41;;;;;;;0.00;0.00;;;8.10;76.80;;;;;;5047623;28;20203;-25
2023/12/05 09:16:11;;;;;;;0.00;0.00;;;8.00;76.80;;;;;;5056657;28;20200;-25
2023/12/05 09:18:41;;;;;;;0.00;0.00;;;8.00;76.80;;;;;;5051327;28;20200;-25
2023/12/05 09:21:11;;;;;;;0.00;0.00;;;8.00;76.80;;;;;;5057342;28;20208;-25
2023/12/05 09:23:38;;;;;;;0.00;0.00;;;8.00;76.80;;;;;;5059569;28;20585;-25
2023/12/05 09:26:06;;;;;;;0.00;0.00;;;8.00;76.80;;;;;;5046844;28;20204;-25
2023/12/05 09:28:36;;;;;;;0.00;0.00;;;8.00;76.80;;;;;;5049876;28;20325;-25
2023/12/05 09:31:05;;;;;;;0.00;0.00;;;8.00;77.00;;;;;;5056689;28;20327;-25
2023/12/05 09:33:33;;;;;;;0.00;0.00;;;8.00;77.00;;;;;;5056836;28;20560;-25
2023/12/05 09:36:03;;;;;;;0.00;0.00;;;8.00;77.10;;;;;;5049651;28;20662;-25
2023/12/05 09:38:30;;;;;;;0.00;0.00;;;8.00;77.10;;;;;;5062931;28;20243;-25
2023/12/05 09:41:00;;;;;;;0.00;0.00;;;8.10;77.00;;;;;;5060882;28;20862;-25
2023/12/05 09:43:34;;;;;;;0.00;0.00;;;8.00;77.00;;;;;;5046681;28;20200;-25
2023/12/05 09:46:08;;;;;;;0.00;0.00;;;8.00;77.00;;;;;;5045789;28;20662;-25
2023/12/05 09:48:51;;;;;;;0.00;0.00;;;8.00;77.10;;;;;;5050764;28;20618;-25
2023/12/05 09:51:22;;;;;;;0.00;0.00;;;8.00;77.00;;;;;;5065755;28;20546;-25
2023/12/05 09:53:53;;;;;;;0.00;0.00;;;8.00;76.90;;;;;;5058311;28;20212;-25
2023/12/05 09:56:22;;;;;;;0.00;0.00;;;8.00;76.90;;;;;;5053700;28;20189;-25
2023/12/05 09:58:53;;;;;;;0.00;0.00;;;8.00;77.00;;;;;;5053165;28;20215;-25
2023/12/05 10:01:23;;;;;;;0.00;0.00;;;8.00;77.20;;;;;;5055993;28;20194;-25
2023/12/05 10:03:58;;;;;;;0.00;0.00;;;8.00;77.10;;;;;;5058826;28;20229;-25
2023/12/05 10:06:31;;;;;;;0.00;0.00;;;8.00;77.10;;;;;;5049579;28;20242;-25
2023/12/05 10:09:02;;;;;;;0.00;0.00;;;8.00;77.10;;;;;;5052086;28;20280;-25
2023/12/05 10:11:33;;;;;;;0.00;0.00;;;8.00;77.10;;;;;;5052908;28;20207;-25
2023/12/05 10:14:03;;;;;;;0.00;0.00;;;8.10;77.10;;;;;;5051898;28;20219;-25
2023/12/05 10:16:33;;;;;;;0.00;0.00;;;8.00;77.00;;;;;;5068569;28;20757;-25
2023/12/05 10:19:01;;;;;;;0.00;0.00;;;8.00;77.10;;;;;;5046047;28;20243;-25
2023/12/05 10:21:34;;;;;;;0.00;0.00;;;8.00;77.10;;;;;;5047801;28;20307;-25
2023/12/05 10:24:01;;;;;;;0.00;0.00;;;8.00;77.10;;;;;;5059902;28;20205;-25
2023/12/05 10:26:28;;;;;;;0.00;0.00;;;8.00;77.20;;;;;;5054303;28;20610;-25
2023/12/05 10:28:58;;;;;;;0.00;0.00;;;8.00;77.20;;;;;;5060200;28;20291;-25
2023/12/05 10:31:27;;;;;;;0.00;0.00;;;8.00;77.20;;;;;;5052530;28;20215;-25
2023/12/05 10:34:07;;;;;;;0.00;0.00;;;8.00;77.30;;;;;;5061168;28;20636;-25
2023/12/05 10:36:38;;;;;;;0.00;0.00;;;8.10;77.40;;;;;;5058049;28;20248;-25
2023/12/05 10:39:05;;;;;;;0.00;0.00;;;8.10;77.40;;;;;;5058386;28;20799;-25
2023/12/05 10:41:37;;;;;;;0.00;0.00;;;8.10;77.30;;;;;;5071767;28;20190;-25
2023/12/05 10:44:08;;;;;;;0.00;0.00;;;8.10;77.30;;;;;;5064262;28;21099;-25
2023/12/05 10:46:36;;;;;;;0.00;0.00;;;8.10;77.30;;;;;;5053688;28;20204;-25
2023/12/05 10:49:05;;;;;;;0.00;0.00;;;8.10;77.40;;;;;;5055430;28;20224;-25
2023/12/05 10:51:35;;;;;;;0.00;0.00;;;8.10;77.40;;;;;;5055234;28;20646;-25
2023/12/05 10:54:05;;;;;;;0.00;0.00;;;8.10;77.30;;;;;;5059576;28;20322;-25
2023/12/05 10:56:35;;;;;;;0.00;0.00;;;8.10;77.30;;;;;;5057121;28;20208;-24
2023/12/05 10:59:07;;;;;;;0.00;0.00;;;8.10;78.10;;;;;;5065855;28;20204;-24
2023/12/05 11:01:37;;;;;;;0.00;0.00;;;8.10;77.40;;;;;;5059894;28;20184;-25
2023/12/05 11:04:07;;;;;;;0.00;0.00;;;8.10;77.40;;;;;;5052862;28;20206;-25
2023/12/05 11:06:35;;;;;;;0.00;0.00;;;8.10;77.40;;;;;;5069197;28;20580;-25
2023/12/05 11:09:02;;;;;;;0.00;0.00;;;8.20;77.50;;;;;;5057606;28;20196;-25
2023/12/05 11:11:31;;;;;;;0.00;0.00;;;8.20;77.50;;;;;;5055465;28;20309;-25
2023/12/05 11:14:02;;;;;;;0.00;0.00;;;8.20;77.50;;;;;;5052606;28;20212;-25
2023/12/05 11:16:39;;;;;;;0.00;0.00;;;8.20;77.50;;;;;;5055451;28;20298;-25
2023/12/05 11:19:16;;;;;;;0.00;0.00;;;8.20;77.60;;;;;;5049887;28;21994;-25
2023/12/05 11:22:04;;;;;;;0.00;0.00;;;8.20;77.60;;;;;;5063014;28;20619;-25
2023/12/05 11:24:37;;;;;;;0.00;0.00;;;8.20;77.50;;;;;;5058403;28;20207;-25
2023/12/05 11:27:36;;;;;;;0.00;0.00;;;8.20;77.50;;;;;;5070099;28;20197;-25
2023/12/05 11:30:39;;;;;;;0.00;0.00;;;8.20;77.60;;;;;;5051098;28;20218;-25
2023/12/05 11:33:32;;;;;;;0.00;0.00;;;8.20;77.60;;;;;;5057787;28;20199;-25
2023/12/05 11:36:18;;;;;;;0.00;0.00;;;8.20;77.60;;;;;;5053225;28;20211;-25
2023/12/05 11:38:45;;;;;;;0.00;0.00;;;8.20;77.60;;;;;;5050698;28;20200;-25
2023/12/05 11:41:19;;;;;;;0.00;0.00;;;8.20;77.50;;;;;;5059650;28;20231;-25
2023/12/05 11:44:11;;;;;;;0.00;0.00;;;8.20;77.50;;;;;;5064569;28;20199;-25
2023/12/05 11:46:45;;;;;;;0.00;0.00;;;8.20;77.60;;;;;;5060540;28;20647;-25
2023/12/05 11:49:36;;;;;;;0.00;0.00;;;8.20;77.50;;;;;;5057091;28;20650;-25
2023/12/05 11:52:10;;;;;;;0.00;0.00;;;8.20;77.60;;;;;;5062923;28;20212;-25
2023/12/05 11:54:46;;;;;;;0.00;0.00;;;8.20;77.50;;;;;;5064164;28;20723;-25
2023/12/05 11:57:20;;;;;;;0.00;0.00;;;8.20;77.50;;;;;;5059222;28;20318;-33
2023/12/05 11:59:50;;;;;;;0.00;0.00;;;8.20;77.50;;;;;;5064418;28;20282;-26
2023/12/05 12:02:32;;;;;;;0.00;0.00;;;8.20;77.50;;;;;;5047570;28;20230;-25
2023/12/05 12:05:05;;;;;;;0.00;0.00;;;8.10;78.30;;;;;;5055263;28;20265;-25
2023/12/05 12:07:46;;;;;;;0.00;0.00;;;8.10;77.50;;;;;;5059795;28;21903;-25
2023/12/05 12:10:17;;;;;;;0.00;0.00;;;8.10;77.50;;;;;;5059464;28;20648;-25
2023/12/05 12:12:49;;;;;;;0.00;0.00;;;8.10;77.50;;;;;;5057015;28;20810;-25
2023/12/05 12:15:21;;;;;;;0.00;0.00;;;8.10;77.50;;;;;;5052671;28;20204;-25
2023/12/05 12:17:52;;;;;;;0.00;0.00;;;8.10;77.60;;;;;;5059819;28;20219;-25
2023/12/05 12:20:20;;;;;;;0.00;0.00;;;8.10;77.60;;;;;;5056199;28;20212;-24
2023/12/05 12:22:51;;;;;;;0.00;0.00;;;8.10;77.50;;;;;;5054267;28;20982;-25
2023/12/05 12:25:21;;;;;;;0.00;0.00;;;8.10;77.50;;;;;;5052321;28;20702;-25
2023/12/05 12:27:48;;;;;;;0.00;0.00;;;8.10;77.60;;;;;;5051596;28;20205;-27
2023/12/05 12:30:20;;;;;;;0.00;0.00;;;8.00;77.50;;;;;;5050038;28;20208;-25
2023/12/05 12:33:05;;;;;;;0.00;0.00;;;8.00;77.50;;;;;;5054280;28;20287;-25
2023/12/05 12:35:32;;;;;;;0.00;0.00;;;8.00;77.40;;;;;;5058262;28;20635;-25
2023/12/05 12:38:04;;;;;;;0.00;0.00;;;8.00;77.40;;;;;;5050049;28;20222;-29
2023/12/05 12:40:33;;;;;;;0.00;0.00;;;8.00;77.50;;;;;;5052915;28;20219;-24
2023/12/05 12:43:01;;;;;;;0.00;0.00;;;8.00;77.60;;;;;;5054763;28;20573;-25
2023/12/05 12:45:31;;;;;;;0.00;0.00;;;7.90;77.60;;;;;;5055756;28;20200;-25
2023/12/05 12:47:58;;;;;;;0.00;0.00;;;7.90;77.50;;;;;;5046854;28;20208;-25
2023/12/05 12:50:26;;;;;;;0.00;0.00;;;7.90;77.50;;;;;;5067786;28;20222;-25
2023/12/05 12:52:54;;;;;;;0.00;0.00;;;7.90;77.50;;;;;;5062162;28;20353;-25
2023/12/05 12:55:25;;;;;;;0.00;0.00;;;7.90;77.50;;;;;;5061130;28;20200;-25
2023/12/05 12:57:53;;;;;;;0.00;0.00;;;7.90;77.50;;;;;;5047064;28;20216;-24
2023/12/05 13:00:21;;;;;;;0.00;0.00;;;7.80;77.40;;;;;;5066917;28;20258;-25
2023/12/05 13:03:06;;;;;;;0.00;0.00;;;7.80;77.70;;;;;;5057977;28;20677;-25
2023/12/05 13:05:42;;;;;;;0.00;0.00;;;7.80;77.60;;;;;;5062065;28;20397;-25
2023/12/05 13:08:16;;;;;;;0.00;0.00;;;7.80;77.60;;;;;;5061915;28;20191;-25
2023/12/05 13:10:46;;;;;;;0.00;0.00;;;7.80;77.50;;;;;;5055050;28;20205;-26
2023/12/05 13:13:17;;;;;;;0.00;0.00;;;7.80;77.50;;;;;;5053637;28;20200;-25
2023/12/05 13:15:44;;;;;;;0.00;0.00;;;7.80;77.60;;;;;;5057901;28;20651;-26